Townhill, United Kingdom
Current Conditions -  °F | °C
As of 9:20 AM on Sunday 26 Oct 2014 (Local Time) from EGPH Reporting Station
Scattered Clouds Scattered Clouds  
Wind Chill: 55°   Ceiling: Unl
Heat Index: 55°   Visibility: 6mi
Dew Point: 46°   Wind: 31mph
Humidity: 72%   Direction: 230°SW
Pressure: 29.62"   Gusts: 48mph
Location:  56.08°N, 3.43°W
Report Text: EGPH 260820Z 23027G42KT 9999 SCT024 13/08 Q1003
Loading
Personal Weather Stations






























Interactive Weather Map
Tropical Storm Tracking
New forecast layout! Learn more

10-Day Weather Forecast

Advertisements
Track Severe Weather on mobile